createdAt,value
2022-10-17T00:00:01.317Z,21.70
2022-10-17T00:10:00.120Z,22.80
2022-10-17T00:20:00.161Z,26.30
2022-10-17T00:30:01.031Z,23.60
2022-10-17T00:40:01.450Z,25.40
2022-10-17T01:00:01.073Z,20.70
2022-10-17T01:10:01.459Z,18.80
2022-10-17T01:20:00.148Z,25.50
2022-10-17T01:30:01.411Z,18.10
2022-10-17T01:40:00.136Z,18.60
2022-10-17T01:50:01.275Z,15.40
2022-10-17T02:00:01.217Z,16.90
2022-10-17T02:10:01.199Z,15.10
2022-10-17T02:20:00.193Z,15.40
2022-10-17T02:30:00.126Z,17.70
2022-10-17T02:40:01.252Z,22.50
2022-10-17T02:50:00.991Z,13.10
2022-10-17T03:00:01.122Z,12.50
2022-10-17T03:10:00.125Z,14.60
2022-10-17T03:20:00.148Z,11.80
2022-10-17T03:30:00.133Z,11.60
2022-10-17T03:40:00.981Z,15.00
2022-10-17T03:50:00.119Z,13.30
2022-10-17T04:00:01.058Z,11.80
2022-10-17T04:10:01.188Z,12.30
2022-10-17T04:20:01.239Z,13.60
2022-10-17T04:30:00.159Z,13.90
2022-10-17T04:40:01.027Z,16.10
2022-10-17T04:50:00.993Z,16.30
2022-10-17T05:00:00.226Z,12.60
2022-10-17T05:10:01.174Z,16.80
2022-10-17T05:20:00.170Z,15.10
2022-10-17T05:30:00.955Z,11.10
2022-10-17T05:40:00.869Z,14.50
2022-10-17T05:50:01.050Z,14.50
2022-10-17T06:00:00.955Z,15.80
2022-10-17T06:10:01.251Z,14.60
2022-10-17T06:20:02.032Z,17.60
2022-10-17T06:30:01.183Z,17.20
2022-10-17T06:40:01.260Z,17.50
2022-10-17T06:50:00.974Z,18.70
2022-10-17T07:00:01.023Z,17.90
2022-10-17T07:10:01.290Z,18.30
2022-10-17T07:20:00.150Z,18.70
2022-10-17T07:30:01.303Z,15.00
2022-10-17T07:40:01.083Z,17.30
2022-10-17T07:50:01.255Z,13.30
2022-10-17T08:00:01.335Z,14.80
2022-10-17T08:10:01.342Z,18.10
2022-10-17T08:20:01.041Z,16.90
2022-10-17T08:30:00.110Z,14.30
2022-10-17T08:40:01.285Z,13.50
2022-10-17T08:50:03.211Z,14.50
2022-10-17T09:00:00.196Z,13.60
2022-10-17T09:10:01.298Z,18.50
2022-10-17T09:20:00.191Z,16.40
2022-10-17T09:30:01.235Z,14.90
2022-10-17T09:40:01.037Z,16.70
2022-10-17T09:50:01.252Z,20.30
2022-10-17T10:00:00.276Z,24.10
2022-10-17T10:10:01.043Z,27.70
2022-10-17T10:20:01.276Z,42.90
2022-10-17T10:30:01.300Z,38.50
2022-10-17T10:40:02.781Z,102.40
2022-10-17T10:50:00.978Z,429.20
2022-10-17T11:00:02.445Z,660.40
2022-10-17T11:10:01.250Z,710.00
2022-10-17T11:20:00.170Z,622.40
2022-10-17T11:30:01.253Z,766.70
2022-10-17T11:40:01.059Z,775.30
2022-10-17T12:00:01.035Z,746.80
2022-10-17T12:10:01.344Z,701.70
2022-10-17T12:20:01.022Z,714.50
2022-10-17T12:30:03.730Z,668.50
2022-10-17T12:40:01.230Z,721.30
2022-10-17T12:50:00.135Z,618.50
2022-10-17T13:00:01.561Z,591.20
2022-10-17T13:10:02.612Z,564.90
2022-10-17T13:20:00.155Z,582.30
2022-10-17T13:30:00.147Z,714.10
2022-10-17T13:40:07.282Z,631.90
2022-10-17T13:50:01.390Z,361.60
2022-10-17T14:00:06.046Z,234.40
2022-10-17T14:10:01.324Z,233.10
2022-10-17T14:20:16.369Z,217.70
2022-10-17T14:30:02.836Z,239.10
2022-10-17T14:40:01.291Z,247.00
2022-10-17T14:50:01.754Z,197.30
2022-10-17T15:00:01.832Z,220.00
2022-10-17T15:10:00.132Z,155.90
2022-10-17T15:20:01.325Z,158.20
2022-10-17T15:30:00.996Z,173.50
2022-10-17T15:40:00.146Z,184.30
2022-10-17T15:50:02.016Z,87.80
2022-10-17T16:00:01.496Z,218.50
2022-10-17T16:10:02.332Z,391.10
2022-10-17T16:20:01.720Z,326.50
2022-10-17T16:30:00.136Z,361.50
2022-10-17T16:40:00.166Z,206.10
2022-10-17T16:50:01.045Z,169.20
2022-10-17T17:00:01.414Z,272.90
2022-10-17T17:10:02.004Z,195.80
2022-10-17T17:20:01.091Z,170.40
2022-10-17T17:30:01.379Z,152.00
2022-10-17T17:50:03.003Z,177.80
2022-10-17T18:00:01.107Z,165.70
2022-10-17T18:10:01.358Z,125.90
2022-10-17T18:20:01.329Z,115.40
2022-10-17T18:30:00.147Z,121.20
2022-10-17T18:40:01.719Z,134.80
2022-10-17T18:50:01.431Z,116.00
2022-10-17T19:00:01.012Z,97.00
2022-10-17T19:10:01.424Z,94.80
2022-10-17T19:20:01.096Z,100.30
2022-10-17T19:30:04.568Z,107.10
2022-10-17T19:40:01.025Z,91.40
2022-10-17T19:50:01.187Z,89.30
2022-10-17T20:00:02.735Z,67.70
2022-10-17T20:10:01.063Z,103.10
2022-10-17T20:20:02.297Z,62.90
2022-10-17T20:30:00.991Z,85.00
2022-10-17T20:40:22.984Z,79.60
2022-10-17T20:50:01.061Z,82.00
2022-10-17T21:00:01.630Z,72.60
2022-10-17T21:10:12.295Z,80.10
2022-10-17T21:20:01.269Z,99.90
2022-10-17T21:30:01.224Z,96.40
2022-10-17T21:40:01.074Z,87.10
2022-10-17T21:50:01.233Z,71.30
2022-10-17T22:00:00.183Z,58.60
2022-10-17T22:10:01.046Z,67.70
2022-10-17T22:20:00.983Z,64.20
2022-10-17T22:30:01.060Z,58.60
2022-10-17T22:40:01.040Z,67.90
2022-10-17T22:50:01.040Z,68.50
2022-10-17T23:00:01.068Z,58.00
2022-10-17T23:10:01.499Z,75.50
2022-10-17T23:20:00.138Z,61.90
2022-10-17T23:30:00.140Z,52.80
2022-10-17T23:40:01.251Z,45.20
2022-10-17T23:50:00.121Z,46.20
